sensor_id;sensor_type;location;lat;lon;timestamp;pressure;altitude;pressure_sealevel;temperature;humidity
16595;BME280;8410;52.532;13.336;2023-09-12T00:00:35;100701.94;;;24.75;66.84
16595;BME280;8410;52.532;13.336;2023-09-12T00:03:03;100704.38;;;24.79;67.36
16595;BME280;8410;52.532;13.336;2023-09-12T00:05:31;100702.81;;;24.75;67.11
16595;BME280;8410;52.532;13.336;2023-09-12T00:07:59;100705.78;;;24.86;66.59
16595;BME280;8410;52.532;13.336;2023-09-12T00:10:26;100703.38;;;24.63;66.29
16595;BME280;8410;52.532;13.336;2023-09-12T00:12:55;100710.16;;;24.29;66.74
16595;BME280;8410;52.532;13.336;2023-09-12T00:15:22;100716.00;;;23.96;67.81
16595;BME280;8410;52.532;13.336;2023-09-12T00:17:50;100715.00;;;24.19;67.69
16595;BME280;8410;52.532;13.336;2023-09-12T00:20:18;100709.59;;;24.62;67.65
16595;BME280;8410;52.532;13.336;2023-09-12T00:22:45;100711.94;;;24.68;65.99
16595;BME280;8410;52.532;13.336;2023-09-12T00:25:13;100707.38;;;24.53;67.25
16595;BME280;8410;52.532;13.336;2023-09-12T00:27:40;100705.38;;;24.58;66.45
16595;BME280;8410;52.532;13.336;2023-09-12T00:30:10;100706.81;;;24.46;66.17
16595;BME280;8410;52.532;13.336;2023-09-12T00:32:38;100708.75;;;24.22;67.29
16595;BME280;8410;52.532;13.336;2023-09-12T00:35:06;100714.53;;;23.89;67.75
16595;BME280;8410;52.532;13.336;2023-09-12T00:37:34;100719.78;;;23.69;67.79
16595;BME280;8410;52.532;13.336;2023-09-12T00:40:01;100713.78;;;23.87;67.71
16595;BME280;8410;52.532;13.336;2023-09-12T00:42:29;100719.88;;;23.88;67.55
16595;BME280;8410;52.532;13.336;2023-09-12T00:44:57;100715.75;;;23.82;68.00
16595;BME280;8410;52.532;13.336;2023-09-12T00:47:26;100711.06;;;23.89;68.44
16595;BME280;8410;52.532;13.336;2023-09-12T00:49:55;100717.44;;;24.04;68.49
16595;BME280;8410;52.532;13.336;2023-09-12T00:52:25;100716.88;;;24.16;67.28
16595;BME280;8410;52.532;13.336;2023-09-12T00:54:54;100711.88;;;24.30;67.53
16595;BME280;8410;52.532;13.336;2023-09-12T00:57:22;100699.28;;;24.37;66.89
16595;BME280;8410;52.532;13.336;2023-09-12T00:59:51;100707.47;;;24.31;68.40
16595;BME280;8410;52.532;13.336;2023-09-12T01:02:20;100702.06;;;24.34;67.12
16595;BME280;8410;52.532;13.336;2023-09-12T01:04:50;100710.88;;;24.14;66.38
16595;BME280;8410;52.532;13.336;2023-09-12T01:07:18;100714.41;;;24.13;67.65
16595;BME280;8410;52.532;13.336;2023-09-12T01:09:46;100708.47;;;24.28;67.59
16595;BME280;8410;52.532;13.336;2023-09-12T01:12:14;100708.75;;;24.02;66.99
16595;BME280;8410;52.532;13.336;2023-09-12T01:14:42;100707.81;;;24.23;68.05
16595;BME280;8410;52.532;13.336;2023-09-12T01:17:09;100703.06;;;24.31;67.44
16595;BME280;8410;52.532;13.336;2023-09-12T01:19:37;100703.38;;;24.44;67.29
16595;BME280;8410;52.532;13.336;2023-09-12T01:22:33;100704.25;;;24.24;66.24
16595;BME280;8410;52.532;13.336;2023-09-12T01:25:42;100700.53;;;23.68;67.92
16595;BME280;8410;52.532;13.336;2023-09-12T01:28:15;100712.66;;;23.71;67.55
16595;BME280;8410;52.532;13.336;2023-09-12T01:30:45;100716.47;;;23.43;68.29
16595;BME280;8410;52.532;13.336;2023-09-12T01:33:15;100710.22;;;23.88;68.82
16595;BME280;8410;52.532;13.336;2023-09-12T01:35:43;100716.94;;;23.75;68.93
16595;BME280;8410;52.532;13.336;2023-09-12T01:38:12;100717.22;;;23.67;67.97
16595;BME280;8410;52.532;13.336;2023-09-12T01:40:43;100708.22;;;23.52;68.71
16595;BME280;8410;52.532;13.336;2023-09-12T01:43:11;100699.38;;;23.75;68.03
16595;BME280;8410;52.532;13.336;2023-09-12T01:45:44;100701.00;;;23.98;69.10
16595;BME280;8410;52.532;13.336;2023-09-12T01:48:14;100699.34;;;24.16;68.15
16595;BME280;8410;52.532;13.336;2023-09-12T01:50:45;100694.09;;;24.16;67.64
16595;BME280;8410;52.532;13.336;2023-09-12T01:53:13;100700.44;;;24.11;67.62
16595;BME280;8410;52.532;13.336;2023-09-12T01:55:42;100697.47;;;24.18;67.58
16595;BME280;8410;52.532;13.336;2023-09-12T01:58:11;100689.09;;;24.29;67.92
16595;BME280;8410;52.532;13.336;2023-09-12T02:00:39;100696.59;;;24.19;66.06
16595;BME280;8410;52.532;13.336;2023-09-12T02:03:08;100703.13;;;23.90;68.67
16595;BME280;8410;52.532;13.336;2023-09-12T02:05:36;100697.06;;;24.09;67.00
16595;BME280;8410;52.532;13.336;2023-09-12T02:08:05;100702.59;;;23.82;66.91
16595;BME280;8410;52.532;13.336;2023-09-12T02:10:33;100694.31;;;23.91;67.75
16595;BME280;8410;52.532;13.336;2023-09-12T02:13:00;100697.78;;;23.92;68.68
16595;BME280;8410;52.532;13.336;2023-09-12T02:15:28;100690.72;;;24.13;67.83
16595;BME280;8410;52.532;13.336;2023-09-12T02:17:55;100688.25;;;24.10;67.96
16595;BME280;8410;52.532;13.336;2023-09-12T02:20:25;100682.28;;;24.06;67.98
16595;BME280;8410;52.532;13.336;2023-09-12T02:22:52;100682.34;;;23.84;68.77
16595;BME280;8410;52.532;13.336;2023-09-12T02:25:20;100692.31;;;23.55;68.26
16595;BME280;8410;52.532;13.336;2023-09-12T02:27:47;100686.22;;;23.96;68.00
16595;BME280;8410;52.532;13.336;2023-09-12T02:30:15;100679.41;;;24.11;67.72
16595;BME280;8410;52.532;13.336;2023-09-12T02:32:43;100680.41;;;24.08;66.79
16595;BME280;8410;52.532;13.336;2023-09-12T02:35:10;100685.63;;;23.89;67.84
16595;BME280;8410;52.532;13.336;2023-09-12T02:37:39;100687.50;;;23.87;67.97
16595;BME280;8410;52.532;13.336;2023-09-12T02:40:08;100681.75;;;23.98;68.57
16595;BME280;8410;52.532;13.336;2023-09-12T02:42:37;100678.16;;;24.01;66.87
16595;BME280;8410;52.532;13.336;2023-09-12T02:45:06;100675.75;;;23.94;68.48
16595;BME280;8410;52.532;13.336;2023-09-12T02:47:34;100670.97;;;23.84;67.21
16595;BME280;8410;52.532;13.336;2023-09-12T02:50:01;100678.34;;;23.13;69.20
16595;BME280;8410;52.532;13.336;2023-09-12T02:52:29;100680.06;;;22.90;70.23
16595;BME280;8410;52.532;13.336;2023-09-12T02:54:58;100681.22;;;22.61;70.65
16595;BME280;8410;52.532;13.336;2023-09-12T02:57:25;100674.03;;;23.32;71.03
16595;BME280;8410;52.532;13.336;2023-09-12T02:59:53;100668.97;;;23.27;69.14
16595;BME280;8410;52.532;13.336;2023-09-12T03:02:20;100671.81;;;23.43;69.16
16595;BME280;8410;52.532;13.336;2023-09-12T03:04:48;100667.41;;;23.64;69.21
16595;BME280;8410;52.532;13.336;2023-09-12T03:07:15;100667.50;;;23.83;68.01
16595;BME280;8410;52.532;13.336;2023-09-12T03:09:43;100667.22;;;23.89;68.63
16595;BME280;8410;52.532;13.336;2023-09-12T03:12:12;100670.44;;;23.96;67.42
16595;BME280;8410;52.532;13.336;2023-09-12T03:14:39;100673.28;;;23.91;67.44
16595;BME280;8410;52.532;13.336;2023-09-12T03:17:07;100667.41;;;24.05;68.25
16595;BME280;8410;52.532;13.336;2023-09-12T03:19:34;100662.97;;;24.06;67.49
16595;BME280;8410;52.532;13.336;2023-09-12T03:22:03;100671.28;;;23.96;68.08
16595;BME280;8410;52.532;13.336;2023-09-12T03:24:30;100666.19;;;23.93;68.45
16595;BME280;8410;52.532;13.336;2023-09-12T03:26:58;100669.53;;;23.14;68.94
16595;BME280;8410;52.532;13.336;2023-09-12T03:29:27;100664.16;;;22.73;70.36
16595;BME280;8410;52.532;13.336;2023-09-12T03:31:54;100668.69;;;22.91;69.50
16595;BME280;8410;52.532;13.336;2023-09-12T03:34:22;100669.13;;;23.02;69.23
16595;BME280;8410;52.532;13.336;2023-09-12T03:36:49;100670.63;;;22.86;69.32
16595;BME280;8410;52.532;13.336;2023-09-12T03:39:17;100679.53;;;22.82;69.85
16595;BME280;8410;52.532;13.336;2023-09-12T03:41:44;100674.56;;;22.74;69.92
16595;BME280;8410;52.532;13.336;2023-09-12T03:44:12;100677.44;;;22.68;69.70
16595;BME280;8410;52.532;13.336;2023-09-12T03:46:41;100678.53;;;22.62;70.27
16595;BME280;8410;52.532;13.336;2023-09-12T03:49:08;100682.19;;;22.58;69.96
16595;BME280;8410;52.532;13.336;2023-09-12T03:51:36;100685.84;;;22.54;69.96
16595;BME280;8410;52.532;13.336;2023-09-12T03:54:04;100689.38;;;22.53;70.38
16595;BME280;8410;52.532;13.336;2023-09-12T03:56:32;100688.09;;;22.63;69.84
16595;BME280;8410;52.532;13.336;2023-09-12T03:59:00;100689.03;;;22.62;70.12
16595;BME280;8410;52.532;13.336;2023-09-12T04:01:28;100688.19;;;22.62;69.94
16595;BME280;8410;52.532;13.336;2023-09-12T04:03:57;100694.84;;;22.47;70.19
16595;BME280;8410;52.532;13.336;2023-09-12T04:06:28;100684.09;;;22.31;70.86
16595;BME280;8410;52.532;13.336;2023-09-12T04:08:56;100698.63;;;22.15;70.84
16595;BME280;8410;52.532;13.336;2023-09-12T04:11:24;100691.78;;;22.36;70.59
16595;BME280;8410;52.532;13.336;2023-09-12T04:14:11;100692.00;;;22.53;70.11
16595;BME280;8410;52.532;13.336;2023-09-12T04:16:38;100687.56;;;22.55;70.11
16595;BME280;8410;52.532;13.336;2023-09-12T04:19:08;100683.53;;;22.68;70.09
16595;BME280;8410;52.532;13.336;2023-09-12T04:21:36;100685.72;;;22.57;69.94
16595;BME280;8410;52.532;13.336;2023-09-12T04:24:04;100690.28;;;22.52;70.21
16595;BME280;8410;52.532;13.336;2023-09-12T04:26:32;100685.50;;;22.40;70.42
16595;BME280;8410;52.532;13.336;2023-09-12T04:28:59;100688.53;;;22.29;70.74
16595;BME280;8410;52.532;13.336;2023-09-12T04:31:27;100689.28;;;22.08;71.08
16595;BME280;8410;52.532;13.336;2023-09-12T04:33:54;100694.13;;;21.95;71.64
16595;BME280;8410;52.532;13.336;2023-09-12T04:36:23;100696.75;;;21.95;72.19
16595;BME280;8410;52.532;13.336;2023-09-12T04:38:51;100691.97;;;22.06;71.68
16595;BME280;8410;52.532;13.336;2023-09-12T04:41:18;100690.19;;;22.32;70.66
16595;BME280;8410;52.532;13.336;2023-09-12T04:43:47;100688.72;;;22.48;70.20
16595;BME280;8410;52.532;13.336;2023-09-12T04:46:14;100692.13;;;22.50;69.85
16595;BME280;8410;52.532;13.336;2023-09-12T04:48:42;100700.84;;;22.51;70.02
16595;BME280;8410;52.532;13.336;2023-09-12T04:51:10;100698.41;;;22.46;70.10
16595;BME280;8410;52.532;13.336;2023-09-12T04:53:39;100695.34;;;22.35;70.80
16595;BME280;8410;52.532;13.336;2023-09-12T04:56:07;100697.31;;;22.28;71.05
16595;BME280;8410;52.532;13.336;2023-09-12T04:58:37;100701.72;;;22.51;70.20
16595;BME280;8410;52.532;13.336;2023-09-12T05:01:04;100697.84;;;22.61;70.04
16595;BME280;8410;52.532;13.336;2023-09-12T05:03:32;100694.72;;;22.74;69.88
16595;BME280;8410;52.532;13.336;2023-09-12T05:06:00;100700.06;;;22.94;70.38
16595;BME280;8410;52.532;13.336;2023-09-12T05:08:28;100697.13;;;23.24;70.16
16595;BME280;8410;52.532;13.336;2023-09-12T05:10:57;100696.75;;;23.33;67.94
16595;BME280;8410;52.532;13.336;2023-09-12T05:13:24;100704.59;;;23.13;68.30
16595;BME280;8410;52.532;13.336;2023-09-12T05:15:52;100698.56;;;22.87;69.70
16595;BME280;8410;52.532;13.336;2023-09-12T05:18:19;100701.53;;;23.01;69.40
16595;BME280;8410;52.532;13.336;2023-09-12T05:20:47;100698.97;;;23.22;68.49
16595;BME280;8410;52.532;13.336;2023-09-12T05:23:15;100698.72;;;23.28;68.04
16595;BME280;8410;52.532;13.336;2023-09-12T05:25:42;100693.19;;;23.14;68.94
16595;BME280;8410;52.532;13.336;2023-09-12T05:28:11;100703.88;;;23.31;68.60
16595;BME280;8410;52.532;13.336;2023-09-12T05:30:42;100702.09;;;23.52;67.96
16595;BME280;8410;52.532;13.336;2023-09-12T05:33:10;100708.34;;;23.70;69.33
16595;BME280;8410;52.532;13.336;2023-09-12T05:35:37;100715.03;;;23.56;69.18
16595;BME280;8410;52.532;13.336;2023-09-12T05:38:05;100708.13;;;23.96;67.73
16595;BME280;8410;52.532;13.336;2023-09-12T05:40:32;100710.41;;;24.04;67.45
16595;BME280;8410;52.532;13.336;2023-09-12T05:43:00;100712.81;;;23.68;68.08
16595;BME280;8410;52.532;13.336;2023-09-12T05:45:29;100709.41;;;23.66;68.72
16595;BME280;8410;52.532;13.336;2023-09-12T05:47:59;100704.34;;;23.82;68.06
16595;BME280;8410;52.532;13.336;2023-09-12T05:50:26;100712.31;;;23.80;67.96
16595;BME280;8410;52.532;13.336;2023-09-12T05:52:54;100714.78;;;23.63;68.58
16595;BME280;8410;52.532;13.336;2023-09-12T05:55:21;100721.09;;;23.59;69.40
16595;BME280;8410;52.532;13.336;2023-09-12T05:57:50;100719.16;;;23.84;68.09
16595;BME280;8410;52.532;13.336;2023-09-12T06:00:19;100722.34;;;23.92;67.64
16595;BME280;8410;52.532;13.336;2023-09-12T06:02:48;100715.94;;;23.98;67.42
16595;BME280;8410;52.532;13.336;2023-09-12T06:05:16;100715.00;;;24.19;67.12
16595;BME280;8410;52.532;13.336;2023-09-12T06:07:44;100719.22;;;24.03;67.79
16595;BME280;8410;52.532;13.336;2023-09-12T06:10:13;100728.06;;;24.21;66.86
16595;BME280;8410;52.532;13.336;2023-09-12T06:12:40;100728.81;;;24.43;65.64
16595;BME280;8410;52.532;13.336;2023-09-12T06:15:08;100734.22;;;24.40;65.67
16595;BME280;8410;52.532;13.336;2023-09-12T06:17:36;100719.03;;;24.66;65.69
16595;BME280;8410;52.532;13.336;2023-09-12T06:20:06;100711.66;;;24.35;66.68
16595;BME280;8410;52.532;13.336;2023-09-12T06:22:34;100713.63;;;24.69;66.09
16595;BME280;8410;52.532;13.336;2023-09-12T06:25:02;100718.88;;;24.69;65.73
16595;BME280;8410;52.532;13.336;2023-09-12T06:27:30;100721.47;;;24.71;65.34
16595;BME280;8410;52.532;13.336;2023-09-12T06:29:58;100721.34;;;24.91;65.02
16595;BME280;8410;52.532;13.336;2023-09-12T06:32:25;100722.25;;;25.09;63.94
16595;BME280;8410;52.532;13.336;2023-09-12T06:34:53;100728.81;;;25.19;63.55
16595;BME280;8410;52.532;13.336;2023-09-12T06:37:22;100730.41;;;25.23;64.01
16595;BME280;8410;52.532;13.336;2023-09-12T06:39:50;100724.97;;;25.26;62.89
16595;BME280;8410;52.532;13.336;2023-09-12T06:42:18;100727.06;;;25.55;62.78
16595;BME280;8410;52.532;13.336;2023-09-12T06:44:45;100727.81;;;25.39;63.74
16595;BME280;8410;52.532;13.336;2023-09-12T06:47:13;100735.53;;;25.44;62.37
16595;BME280;8410;52.532;13.336;2023-09-12T06:49:40;100745.22;;;25.61;61.41
16595;BME280;8410;52.532;13.336;2023-09-12T06:52:08;100746.84;;;25.63;62.15
16595;BME280;8410;52.532;13.336;2023-09-12T06:54:38;100756.47;;;25.64;62.09
16595;BME280;8410;52.532;13.336;2023-09-12T06:57:06;100761.13;;;25.59;63.11
16595;BME280;8410;52.532;13.336;2023-09-12T06:59:33;100753.06;;;25.97;60.42
16595;BME280;8410;52.532;13.336;2023-09-12T07:02:01;100737.09;;;26.00;61.89
16595;BME280;8410;52.532;13.336;2023-09-12T07:04:29;100743.00;;;25.88;61.70
16595;BME280;8410;52.532;13.336;2023-09-12T07:06:56;100749.25;;;25.50;62.80
16595;BME280;8410;52.532;13.336;2023-09-12T07:09:24;100753.38;;;25.73;62.28
16595;BME280;8410;52.532;13.336;2023-09-12T07:11:53;100749.34;;;25.66;61.56
16595;BME280;8410;52.532;13.336;2023-09-12T07:14:20;100757.72;;;25.92;62.21
16595;BME280;8410;52.532;13.336;2023-09-12T07:16:49;100751.69;;;25.90;61.65
16595;BME280;8410;52.532;13.336;2023-09-12T07:19:17;100754.91;;;25.60;62.43
16595;BME280;8410;52.532;13.336;2023-09-12T07:21:44;100757.00;;;25.71;61.98
16595;BME280;8410;52.532;13.336;2023-09-12T07:24:13;100751.69;;;25.90;61.16
16595;BME280;8410;52.532;13.336;2023-09-12T07:26:40;100742.84;;;25.91;61.69
16595;BME280;8410;52.532;13.336;2023-09-12T07:29:09;100743.91;;;26.04;61.20
16595;BME280;8410;52.532;13.336;2023-09-12T07:31:37;100745.63;;;26.05;61.19
16595;BME280;8410;52.532;13.336;2023-09-12T07:34:04;100748.41;;;26.02;60.85
16595;BME280;8410;52.532;13.336;2023-09-12T07:36:34;100732.88;;;26.13;60.83
16595;BME280;8410;52.532;13.336;2023-09-12T07:39:03;100733.09;;;26.26;60.00
16595;BME280;8410;52.532;13.336;2023-09-12T07:41:30;100729.88;;;26.37;60.02
16595;BME280;8410;52.532;13.336;2023-09-12T07:43:58;100733.25;;;26.23;61.00
16595;BME280;8410;52.532;13.336;2023-09-12T07:46:28;100731.09;;;26.47;59.93
16595;BME280;8410;52.532;13.336;2023-09-12T07:48:56;100730.88;;;26.34;60.07
16595;BME280;8410;52.532;13.336;2023-09-12T07:51:24;100738.88;;;26.33;60.07
16595;BME280;8410;52.532;13.336;2023-09-12T07:53:52;100738.88;;;26.33;60.31
16595;BME280;8410;52.532;13.336;2023-09-12T07:56:20;100727.66;;;26.45;60.02
16595;BME280;8410;52.532;13.336;2023-09-12T07:58:48;100741.22;;;26.39;60.18
16595;BME280;8410;52.532;13.336;2023-09-12T08:01:15;100735.88;;;26.56;59.28
16595;BME280;8410;52.532;13.336;2023-09-12T08:03:44;100733.34;;;26.71;59.96
16595;BME280;8410;52.532;13.336;2023-09-12T08:06:14;100738.28;;;26.77;59.52
16595;BME280;8410;52.532;13.336;2023-09-12T08:08:41;100744.53;;;26.76;59.73
16595;BME280;8410;52.532;13.336;2023-09-12T08:11:11;100738.28;;;26.77;59.84
16595;BME280;8410;52.532;13.336;2023-09-12T08:13:38;100734.69;;;26.78;59.97
16595;BME280;8410;52.532;13.336;2023-09-12T08:16:07;100732.47;;;26.70;59.56
16595;BME280;8410;52.532;13.336;2023-09-12T08:18:35;100736.25;;;26.66;59.81
16595;BME280;8410;52.532;13.336;2023-09-12T08:21:03;100740.16;;;26.75;59.69
16595;BME280;8410;52.532;13.336;2023-09-12T08:23:31;100731.22;;;26.28;59.90
16595;BME280;8410;52.532;13.336;2023-09-12T08:25:59;100735.22;;;26.84;59.03
16595;BME280;8410;52.532;13.336;2023-09-12T08:28:26;100727.63;;;26.94;58.95
16595;BME280;8410;52.532;13.336;2023-09-12T08:30:54;100739.97;;;26.62;59.55
16595;BME280;8410;52.532;13.336;2023-09-12T08:33:21;100740.56;;;26.18;61.82
16595;BME280;8410;52.532;13.336;2023-09-12T08:35:52;100736.44;;;26.79;60.36
16595;BME280;8410;52.532;13.336;2023-09-12T08:38:20;100733.69;;;26.96;59.20
16595;BME280;8410;52.532;13.336;2023-09-12T08:40:49;100734.88;;;27.06;59.77
16595;BME280;8410;52.532;13.336;2023-09-12T08:43:17;100740.84;;;26.94;58.98
16595;BME280;8410;52.532;13.336;2023-09-12T08:45:45;100736.16;;;26.52;60.34
16595;BME280;8410;52.532;13.336;2023-09-12T08:48:15;100738.63;;;27.18;59.32
16595;BME280;8410;52.532;13.336;2023-09-12T08:50:43;100744.50;;;26.92;59.39
16595;BME280;8410;52.532;13.336;2023-09-12T08:53:13;100746.94;;;27.42;58.31
16595;BME280;8410;52.532;13.336;2023-09-12T08:55:42;100750.53;;;27.41;58.36
16595;BME280;8410;52.532;13.336;2023-09-12T08:58:10;100754.25;;;27.53;58.31
16595;BME280;8410;52.532;13.336;2023-09-12T09:00:38;100755.63;;;27.44;58.36
16595;BME280;8410;52.532;13.336;2023-09-12T09:03:06;100750.72;;;27.38;58.70
16595;BME280;8410;52.532;13.336;2023-09-12T09:05:34;100755.31;;;27.51;58.19
16595;BME280;8410;52.532;13.336;2023-09-12T09:08:04;100763.56;;;27.44;58.85
16595;BME280;8410;52.532;13.336;2023-09-12T09:10:32;100766.59;;;27.38;59.38
16595;BME280;8410;52.532;13.336;2023-09-12T09:13:17;100767.09;;;27.29;59.54
16595;BME280;8410;52.532;13.336;2023-09-12T09:15:45;100776.13;;;26.93;61.13
16595;BME280;8410;52.532;13.336;2023-09-12T09:18:13;100769.91;;;26.94;61.37
16595;BME280;8410;52.532;13.336;2023-09-12T09:20:41;100780.97;;;26.36;63.20
16595;BME280;8410;52.532;13.336;2023-09-12T09:23:12;100786.34;;;26.50;63.14
16595;BME280;8410;52.532;13.336;2023-09-12T09:25:40;100778.09;;;27.05;62.27
16595;BME280;8410;52.532;13.336;2023-09-12T09:28:17;100796.38;;;26.10;65.42
16595;BME280;8410;52.532;13.336;2023-09-12T09:30:47;100792.00;;;26.27;64.52
16595;BME280;8410;52.532;13.336;2023-09-12T09:33:15;100797.06;;;26.65;63.71
16595;BME280;8410;52.532;13.336;2023-09-12T09:35:45;100799.03;;;26.77;63.93
16595;BME280;8410;52.532;13.336;2023-09-12T09:38:13;100789.50;;;26.90;63.65
16595;BME280;8410;52.532;13.336;2023-09-12T09:40:44;100788.06;;;27.00;63.73
16595;BME280;8410;52.532;13.336;2023-09-12T09:43:12;100794.69;;;26.92;64.21
16595;BME280;8410;52.532;13.336;2023-09-12T09:45:45;100799.41;;;26.53;64.16
16595;BME280;8410;52.532;13.336;2023-09-12T09:48:18;100795.56;;;26.92;63.73
16595;BME280;8410;52.532;13.336;2023-09-12T09:50:46;100798.97;;;26.78;64.21
16595;BME280;8410;52.532;13.336;2023-09-12T09:53:14;100792.28;;;26.55;64.87
16595;BME280;8410;52.532;13.336;2023-09-12T09:55:41;100789.84;;;26.84;65.13
16595;BME280;8410;52.532;13.336;2023-09-12T09:58:14;100790.56;;;27.35;62.76
16595;BME280;8410;52.532;13.336;2023-09-12T10:00:45;100783.06;;;27.58;62.62
16595;BME280;8410;52.532;13.336;2023-09-12T10:03:18;100780.47;;;26.94;64.05
16595;BME280;8410;52.532;13.336;2023-09-12T10:05:50;100796.91;;;26.50;65.54
16595;BME280;8410;52.532;13.336;2023-09-12T10:08:19;100780.56;;;26.93;64.42
16595;BME280;8410;52.532;13.336;2023-09-12T10:10:49;100769.28;;;27.05;64.32
16595;BME280;8410;52.532;13.336;2023-09-12T10:13:18;100762.56;;;27.31;63.94
16595;BME280;8410;52.532;13.336;2023-09-12T10:15:49;100761.13;;;27.25;63.88
16595;BME280;8410;52.532;13.336;2023-09-12T10:18:19;100761.81;;;26.97;63.81
16595;BME280;8410;52.532;13.336;2023-09-12T10:20:55;100755.00;;;27.25;63.86
16595;BME280;8410;52.532;13.336;2023-09-12T10:23:28;100750.91;;;27.35;63.52
16595;BME280;8410;52.532;13.336;2023-09-12T10:25:58;100748.25;;;27.35;63.08
16595;BME280;8410;52.532;13.336;2023-09-12T10:28:25;100737.44;;;27.24;63.32
16595;BME280;8410;52.532;13.336;2023-09-12T10:30:57;100732.28;;;27.37;63.30
16595;BME280;8410;52.532;13.336;2023-09-12T10:33:25;100731.81;;;27.75;62.06
16595;BME280;8410;52.532;13.336;2023-09-12T10:35:59;100730.78;;;27.77;61.84
16595;BME280;8410;52.532;13.336;2023-09-12T10:38:28;100725.00;;;27.56;62.17
16595;BME280;8410;52.532;13.336;2023-09-12T10:40:58;100732.78;;;27.43;62.80
16595;BME280;8410;52.532;13.336;2023-09-12T10:43:28;100735.09;;;27.64;61.92
16595;BME280;8410;52.532;13.336;2023-09-12T10:45:57;100727.84;;;28.12;60.71
16595;BME280;8410;52.532;13.336;2023-09-12T10:48:25;100736.34;;;28.03;61.57
16595;BME280;8410;52.532;13.336;2023-09-12T10:50:55;100732.00;;;28.30;60.84
16595;BME280;8410;52.532;13.336;2023-09-12T10:53:26;100735.63;;;28.15;61.19
16595;BME280;8410;52.532;13.336;2023-09-12T10:55:58;100740.34;;;27.80;61.64
16595;BME280;8410;52.532;13.336;2023-09-12T10:58:26;100732.75;;;28.04;60.87
16595;BME280;8410;52.532;13.336;2023-09-12T11:01:23;100739.19;;;27.85;61.66
16595;BME280;8410;52.532;13.336;2023-09-12T11:03:52;100738.03;;;28.04;61.50
16595;BME280;8410;52.532;13.336;2023-09-12T11:06:20;100728.59;;;28.43;60.80
16595;BME280;8410;52.532;13.336;2023-09-12T11:09:16;100732.69;;;28.48;60.84
16595;BME280;8410;52.532;13.336;2023-09-12T11:11:46;100733.13;;;27.98;61.72
16595;BME280;8410;52.532;13.336;2023-09-12T11:14:14;100724.06;;;28.59;60.45
16595;BME280;8410;52.532;13.336;2023-09-12T11:17:19;100730.88;;;28.06;60.44
16595;BME280;8410;52.532;13.336;2023-09-12T11:19:48;100733.97;;;27.98;61.14
16595;BME280;8410;52.532;13.336;2023-09-12T11:22:23;100731.09;;;28.46;59.09
16595;BME280;8410;52.532;13.336;2023-09-12T11:24:51;100732.78;;;28.47;59.07
16595;BME280;8410;52.532;13.336;2023-09-12T11:27:19;100721.31;;;28.03;60.29
16595;BME280;8410;52.532;13.336;2023-09-12T11:29:46;100724.00;;;28.18;59.97
16595;BME280;8410;52.532;13.336;2023-09-12T11:32:28;100733.16;;;28.26;59.75
16595;BME280;8410;52.532;13.336;2023-09-12T11:34:59;100725.03;;;28.44;59.08
16595;BME280;8410;52.532;13.336;2023-09-12T11:37:48;100728.03;;;28.66;58.13
16595;BME280;8410;52.532;13.336;2023-09-12T11:40:17;100734.09;;;28.40;59.84
16595;BME280;8410;52.532;13.336;2023-09-12T11:42:45;100728.50;;;28.30;59.32
16595;BME280;8410;52.532;13.336;2023-09-12T11:45:17;100728.59;;;28.14;59.75
16595;BME280;8410;52.532;13.336;2023-09-12T11:47:47;100730.31;;;28.29;60.04
16595;BME280;8410;52.532;13.336;2023-09-12T11:50:28;100729.00;;;28.08;60.39
16595;BME280;8410;52.532;13.336;2023-09-12T11:53:00;100725.19;;;28.12;60.54
16595;BME280;8410;52.532;13.336;2023-09-12T11:55:30;100730.47;;;28.12;60.24
16595;BME280;8410;52.532;13.336;2023-09-12T11:57:58;100719.25;;;28.08;59.81
16595;BME280;8410;52.532;13.336;2023-09-12T12:00:26;100721.03;;;27.93;60.20
16595;BME280;8410;52.532;13.336;2023-09-12T12:02:56;100718.22;;;27.97;60.42
16595;BME280;8410;52.532;13.336;2023-09-12T12:05:23;100723.31;;;28.14;59.75
16595;BME280;8410;52.532;13.336;2023-09-12T12:07:51;100728.06;;;28.23;59.74
16595;BME280;8410;52.532;13.336;2023-09-12T12:10:28;100723.50;;;27.97;60.29
16595;BME280;8410;52.532;13.336;2023-09-12T12:12:56;100725.19;;;28.41;59.23
16595;BME280;8410;52.532;13.336;2023-09-12T12:15:24;100718.00;;;28.14;59.55
16595;BME280;8410;52.532;13.336;2023-09-12T12:17:56;100712.50;;;28.74;58.51
16595;BME280;8410;52.532;13.336;2023-09-12T12:20:24;100717.00;;;28.87;58.78
16595;BME280;8410;52.532;13.336;2023-09-12T12:22:51;100723.50;;;28.68;59.07
16595;BME280;8410;52.532;13.336;2023-09-12T12:25:19;100723.31;;;28.57;58.79
16595;BME280;8410;52.532;13.336;2023-09-12T12:27:46;100716.22;;;28.99;58.62
16595;BME280;8410;52.532;13.336;2023-09-12T12:30:14;100716.25;;;28.57;58.66
16595;BME280;8410;52.532;13.336;2023-09-12T12:32:43;100712.72;;;28.43;59.08
16595;BME280;8410;52.532;13.336;2023-09-12T12:35:18;100716.47;;;28.67;58.42
16595;BME280;8410;52.532;13.336;2023-09-12T12:38:05;100718.22;;;28.68;58.33
16595;BME280;8410;52.532;13.336;2023-09-12T12:40:37;100722.50;;;28.84;58.21
16595;BME280;8410;52.532;13.336;2023-09-12T12:43:16;100717.06;;;28.99;58.21
16595;BME280;8410;52.532;13.336;2023-09-12T12:45:52;100705.66;;;29.39;57.51
16595;BME280;8410;52.532;13.336;2023-09-12T12:48:29;100703.59;;;29.30;56.54
16595;BME280;8410;52.532;13.336;2023-09-12T12:50:59;100696.53;;;29.03;57.05
16595;BME280;8410;52.532;13.336;2023-09-12T12:53:39;100697.16;;;28.79;58.16
16595;BME280;8410;52.532;13.336;2023-09-12T12:56:20;100696.16;;;29.09;57.44
16595;BME280;8410;52.532;13.336;2023-09-12T12:58:50;100691.06;;;29.19;57.24
16595;BME280;8410;52.532;13.336;2023-09-12T13:01:17;100690.88;;;29.35;56.65